createdAt,value
2022-09-11T00:01:56.165Z,99803.03
2022-09-11T00:04:27.700Z,99816.06
2022-09-11T00:06:56.544Z,99813.56
2022-09-11T00:09:25.316Z,99812.03
2022-09-11T00:11:54.290Z,99784.59
2022-09-11T00:14:25.936Z,99791.66
2022-09-11T00:16:54.688Z,99786.88
2022-09-11T00:19:23.486Z,99791.09
2022-09-11T00:21:52.437Z,99800.84
2022-09-11T00:24:21.343Z,99770.38
2022-09-11T00:26:50.130Z,99716.31
2022-09-11T00:29:19.759Z,99715.28
2022-09-11T00:31:50.076Z,99798.53
2022-09-11T00:34:19.215Z,99779.69
2022-09-11T00:36:48.395Z,99783.69
2022-09-11T00:39:18.122Z,99765.13
2022-09-11T00:41:49.259Z,99780.94
2022-09-11T00:44:55.541Z,99778.38
2022-09-11T00:47:30.195Z,99775.00
2022-09-11T00:50:08.163Z,99773.06
2022-09-11T00:52:42.325Z,99779.09
2022-09-11T00:55:15.773Z,99782.53
2022-09-11T00:57:47.913Z,99774.41
2022-09-11T01:00:17.648Z,99769.00
2022-09-11T01:02:50.378Z,99776.09
2022-09-11T01:05:22.611Z,99788.75
2022-09-11T01:07:54.357Z,99770.97
2022-09-11T01:10:37.395Z,99760.88
2022-09-11T01:13:12.306Z,99773.19
2022-09-11T01:15:49.913Z,99770.97
2022-09-11T01:18:31.500Z,99771.97
2022-09-11T01:21:33.896Z,99764.09
2022-09-11T01:24:17.465Z,99770.00
2022-09-11T01:27:01.981Z,99765.44
2022-09-11T01:29:39.512Z,99758.03
2022-09-11T01:32:16.021Z,99755.28
2022-09-11T01:34:53.005Z,99769.06
2022-09-11T01:37:29.007Z,99752.50
2022-09-11T01:40:10.706Z,99749.47
2022-09-11T01:42:44.911Z,99751.63
2022-09-11T01:45:17.920Z,99755.88
2022-09-11T01:47:50.275Z,99740.81
2022-09-11T01:50:21.718Z,99737.19
2022-09-11T01:52:54.005Z,99763.75
2022-09-11T01:55:29.075Z,99758.72
2022-09-11T01:58:03.947Z,99750.00
2022-09-11T02:00:37.948Z,99755.81
2022-09-11T02:03:11.625Z,99751.97
2022-09-11T02:05:45.924Z,99722.94
2022-09-11T02:08:21.966Z,99733.66
2022-09-11T02:10:55.001Z,99741.19
2022-09-11T02:13:29.892Z,99743.25
2022-09-11T02:16:06.781Z,99743.88
2022-09-11T02:18:44.298Z,99644.47
2022-09-11T02:21:13.134Z,99726.69
2022-09-11T02:23:42.481Z,99743.31
2022-09-11T02:26:14.430Z,99721.50
2022-09-11T02:28:43.476Z,99740.31
2022-09-11T02:31:13.605Z,99737.13
2022-09-11T02:33:43.567Z,99721.72
2022-09-11T02:36:41.770Z,99738.69
2022-09-11T02:39:23.188Z,99742.88
2022-09-11T02:42:08.345Z,99745.72
2022-09-11T02:44:42.487Z,99747.97
2022-09-11T02:47:27.070Z,99747.75
2022-09-11T02:50:04.357Z,99754.13
2022-09-11T02:52:46.373Z,99752.38
2022-09-11T02:55:23.237Z,99745.41
2022-09-11T02:57:58.644Z,99750.47
2022-09-11T03:00:28.134Z,99758.56
2022-09-11T03:02:59.235Z,99748.34
2022-09-11T03:05:29.517Z,99735.28
2022-09-11T03:07:58.652Z,99748.69
2022-09-11T03:10:28.179Z,99757.59
2022-09-11T03:12:59.804Z,99754.44
2022-09-11T03:15:32.855Z,99762.34
2022-09-11T03:18:05.231Z,99772.75
2022-09-11T03:20:34.260Z,99782.13
2022-09-11T03:23:08.325Z,99791.69
2022-09-11T03:25:37.108Z,99798.00
2022-09-11T03:28:07.438Z,99809.88
2022-09-11T03:30:36.688Z,99798.38
2022-09-11T03:33:07.327Z,99808.03
2022-09-11T03:35:37.047Z,99804.59
2022-09-11T03:38:05.822Z,99814.50
2022-09-11T03:40:34.566Z,99749.13
2022-09-11T03:43:05.176Z,99825.63
2022-09-11T03:45:34.133Z,99806.44
2022-09-11T03:48:03.368Z,99820.28
2022-09-11T03:50:34.875Z,99824.59
2022-09-11T03:53:03.805Z,99828.41
2022-09-11T03:55:32.795Z,99829.38
2022-09-11T03:58:02.048Z,99825.75
2022-09-11T04:00:31.221Z,99835.63
2022-09-11T04:03:00.531Z,99829.03
2022-09-11T04:05:44.247Z,99838.91
2022-09-11T04:08:14.223Z,99697.66
2022-09-11T04:10:45.916Z,99835.47
2022-09-11T04:13:16.797Z,99842.63
2022-09-11T04:15:45.532Z,99841.34
2022-09-11T04:18:14.623Z,99850.56
2022-09-11T04:20:44.865Z,99839.88
2022-09-11T04:23:14.361Z,99855.63
2022-09-11T04:25:45.703Z,99834.28
2022-09-11T04:28:14.704Z,99839.16
2022-09-11T04:30:43.604Z,99852.81
2022-09-11T04:33:12.452Z,99850.16
2022-09-11T04:35:41.893Z,99854.41
2022-09-11T04:38:11.902Z,99858.84
2022-09-11T04:40:40.840Z,99857.50
2022-09-11T04:43:12.007Z,99840.22
2022-09-11T04:45:43.828Z,99841.56
2022-09-11T04:48:17.149Z,99853.69
2022-09-11T04:50:48.357Z,99860.09
2022-09-11T04:53:26.150Z,99859.50
2022-09-11T04:56:03.279Z,99861.16
2022-09-11T04:58:38.282Z,99864.00
2022-09-11T05:01:09.147Z,99840.75
2022-09-11T05:03:39.489Z,99858.06
2022-09-11T05:06:11.649Z,99848.38
2022-09-11T05:08:43.825Z,99849.59
2022-09-11T05:11:14.813Z,99845.84
2022-09-11T05:13:45.026Z,99856.50
2022-09-11T05:16:17.056Z,99852.16
2022-09-11T05:18:52.374Z,99856.50
2022-09-11T05:21:25.415Z,99834.97
2022-09-11T05:23:58.235Z,99874.94
2022-09-11T05:26:29.967Z,99855.22
2022-09-11T05:29:01.245Z,99870.81
2022-09-11T05:31:32.275Z,99881.03
2022-09-11T05:34:02.132Z,99889.84
2022-09-11T05:36:32.125Z,99879.31
2022-09-11T05:39:02.329Z,99881.63
2022-09-11T05:41:31.320Z,99879.75
2022-09-11T05:44:00.125Z,99877.44
2022-09-11T05:46:29.252Z,99890.84
2022-09-11T05:49:03.073Z,99780.63
2022-09-11T05:51:36.115Z,99888.53
2022-09-11T05:54:06.712Z,99887.66
2022-09-11T05:56:36.223Z,99876.19
2022-09-11T05:59:15.506Z,99876.13
2022-09-11T06:01:47.625Z,99883.38
2022-09-11T06:04:23.045Z,99889.56
2022-09-11T06:06:54.332Z,99881.81
2022-09-11T06:09:24.868Z,99886.63
2022-09-11T06:11:54.865Z,99875.91
2022-09-11T06:14:23.591Z,99867.34
2022-09-11T06:16:57.122Z,99870.59
2022-09-11T06:19:27.491Z,99875.91
2022-09-11T06:21:58.399Z,99876.50
2022-09-11T06:24:36.092Z,99874.38
2022-09-11T06:27:05.226Z,99869.94
2022-09-11T06:29:36.492Z,99885.78
2022-09-11T06:32:06.859Z,99879.34
2022-09-11T06:34:36.010Z,99861.22
2022-09-11T06:37:09.073Z,99879.75
2022-09-11T06:39:39.284Z,99876.47
2022-09-11T06:42:08.453Z,99871.69
2022-09-11T06:44:38.960Z,99883.78
2022-09-11T06:47:08.328Z,99876.13
2022-09-11T06:49:38.336Z,99883.75
2022-09-11T06:52:21.903Z,99864.28
2022-09-11T06:55:05.850Z,99868.94
2022-09-11T06:57:39.888Z,99878.34
2022-09-11T07:00:14.268Z,99879.31
2022-09-11T07:02:43.988Z,99875.75
2022-09-11T07:05:13.883Z,99891.28
2022-09-11T07:07:44.168Z,99905.63
2022-09-11T07:10:14.831Z,99902.97
2022-09-11T07:12:45.188Z,99885.81
2022-09-11T07:15:14.185Z,99901.41
2022-09-11T07:17:42.949Z,99905.38
2022-09-11T07:20:14.688Z,99908.00
2022-09-11T07:22:45.683Z,99907.81
2022-09-11T07:25:18.120Z,99905.13
2022-09-11T07:27:48.788Z,99915.13
2022-09-11T07:30:20.877Z,99913.19
2022-09-11T07:32:54.207Z,99916.03
2022-09-11T07:35:23.395Z,99910.69
2022-09-11T07:37:59.920Z,99911.00
2022-09-11T07:40:31.394Z,99911.72
2022-09-11T07:43:03.929Z,99916.75
2022-09-11T07:45:32.881Z,99910.00
2022-09-11T07:48:02.662Z,99912.06
2022-09-11T07:50:33.304Z,99913.50
2022-09-11T07:53:02.385Z,99907.31
2022-09-11T07:55:35.753Z,99905.09
2022-09-11T07:58:05.539Z,99902.66
2022-09-11T08:00:37.212Z,99903.53
2022-09-11T08:03:15.648Z,99911.03
2022-09-11T08:05:44.684Z,99907.75
2022-09-11T08:08:15.025Z,99912.25
2022-09-11T08:10:45.598Z,99898.72
2022-09-11T08:13:15.040Z,99907.81
2022-09-11T08:15:50.460Z,99904.97
2022-09-11T08:18:22.910Z,99910.34
2022-09-11T08:20:53.073Z,99905.88
2022-09-11T08:23:22.453Z,99900.22
2022-09-11T08:25:54.348Z,99901.94
2022-09-11T08:28:23.576Z,99903.28
2022-09-11T08:30:58.449Z,99904.25
2022-09-11T08:33:27.258Z,99902.09
2022-09-11T08:35:56.253Z,99837.81
2022-09-11T08:38:25.145Z,99893.59
2022-09-11T08:40:55.713Z,99900.94
2022-09-11T08:43:27.843Z,99901.94
2022-09-11T08:46:05.031Z,99909.31
2022-09-11T08:48:39.650Z,99904.31
2022-09-11T08:51:14.371Z,99898.38
2022-09-11T08:53:44.205Z,99899.44
2022-09-11T08:56:19.271Z,99892.03
2022-09-11T08:59:13.925Z,99899.00
2022-09-11T09:01:54.313Z,99907.28
2022-09-11T09:04:41.513Z,99899.25
2022-09-11T09:07:20.476Z,99909.69
2022-09-11T09:10:01.309Z,99914.03
2022-09-11T09:12:41.496Z,99902.75
2022-09-11T09:15:37.287Z,99914.56
2022-09-11T09:18:12.656Z,99908.00
2022-09-11T09:20:51.316Z,99908.13
2022-09-11T09:23:22.699Z,99901.22
2022-09-11T09:25:53.829Z,99904.00
2022-09-11T09:28:26.100Z,99910.44
2022-09-11T09:30:58.412Z,99899.16
2022-09-11T09:33:34.899Z,99906.63
2022-09-11T09:36:17.487Z,99911.38
2022-09-11T09:38:47.203Z,99907.84
2022-09-11T09:41:43.565Z,99906.31
2022-09-11T09:44:25.943Z,99915.56
2022-09-11T09:46:56.708Z,99913.69
2022-09-11T09:49:28.599Z,99902.75
2022-09-11T09:52:04.058Z,99898.22
2022-09-11T09:54:36.572Z,99904.03
2022-09-11T09:57:10.660Z,99901.59
2022-09-11T09:59:45.062Z,99903.53
2022-09-11T10:02:13.926Z,99903.56
2022-09-11T10:04:42.775Z,99836.13
2022-09-11T10:07:14.124Z,99902.28
2022-09-11T10:09:50.668Z,99901.56
2022-09-11T10:12:23.020Z,99861.91
2022-09-11T10:14:56.438Z,99893.66
2022-09-11T10:17:33.561Z,99899.56
2022-09-11T10:20:23.143Z,99901.28
2022-09-11T10:22:53.103Z,99884.94
2022-09-11T10:25:26.839Z,99877.25
2022-09-11T10:28:03.595Z,99884.72
2022-09-11T10:30:40.304Z,99889.78
2022-09-11T10:33:20.400Z,99891.66
2022-09-11T10:35:55.331Z,99883.09
2022-09-11T10:38:31.396Z,99903.22
2022-09-11T10:41:08.986Z,99900.72
2022-09-11T10:43:48.521Z,99912.41
2022-09-11T10:46:40.740Z,99888.75
2022-09-11T10:49:23.436Z,99896.78
2022-09-11T10:52:05.691Z,99890.34
2022-09-11T10:54:47.066Z,99856.53
2022-09-11T10:57:22.735Z,99885.81
2022-09-11T11:00:02.857Z,99876.78
2022-09-11T11:02:35.693Z,99879.13
2022-09-11T11:05:08.229Z,99865.13
2022-09-11T11:08:24.063Z,99873.56
2022-09-11T11:11:06.168Z,99874.63
2022-09-11T11:14:04.794Z,99874.78
2022-09-11T11:16:47.497Z,99866.78
2022-09-11T11:19:36.716Z,99863.63
2022-09-11T11:22:13.571Z,99861.06
2022-09-11T11:24:59.052Z,99846.44
2022-09-11T11:28:03.283Z,99868.03
2022-09-11T11:30:38.951Z,99859.13
2022-09-11T11:33:26.466Z,99864.38
2022-09-11T11:36:03.836Z,99850.94
2022-09-11T11:38:42.270Z,99846.63
2022-09-11T11:41:16.429Z,99856.59
2022-09-11T11:43:48.964Z,99855.94
2022-09-11T11:46:22.389Z,99850.22
2022-09-11T11:48:59.897Z,99860.66
2022-09-11T11:51:40.721Z,99845.22
2022-09-11T11:54:19.344Z,99846.63
2022-09-11T11:56:51.816Z,99813.09
2022-09-11T11:59:28.177Z,99856.31
2022-09-11T12:02:03.659Z,99854.38
2022-09-11T12:04:47.101Z,99857.72
2022-09-11T12:07:22.704Z,99843.69
2022-09-11T12:09:54.344Z,99860.78
2022-09-11T12:12:29.732Z,99859.25
2022-09-11T12:15:06.469Z,99858.09
2022-09-11T12:17:37.217Z,99793.72
2022-09-11T12:20:32.904Z,99852.44
2022-09-11T12:23:03.373Z,99856.28
2022-09-11T12:26:05.025Z,99847.97
2022-09-11T12:28:35.862Z,99850.66
2022-09-11T12:31:07.083Z,99853.97
2022-09-11T12:33:56.631Z,99850.03
2022-09-11T12:36:33.879Z,99842.84
2022-09-11T12:39:17.187Z,99839.38
2022-09-11T12:41:47.017Z,99843.81
2022-09-11T12:44:33.175Z,99833.59
2022-09-11T12:47:17.813Z,99818.25
2022-09-11T12:49:57.362Z,99842.09
2022-09-11T12:52:34.001Z,99745.00
2022-09-11T12:55:24.119Z,99838.66
2022-09-11T12:57:53.475Z,99838.09
2022-09-11T13:00:25.544Z,99834.56
2022-09-11T13:02:57.978Z,99830.72
2022-09-11T13:05:29.830Z,99831.66
2022-09-11T13:08:03.831Z,99821.88
2022-09-11T13:10:38.931Z,99822.81
2022-09-11T13:13:57.370Z,99821.56
2022-09-11T13:16:50.116Z,99812.78
2022-09-11T13:19:19.585Z,99801.13
2022-09-11T13:21:52.138Z,99801.94
2022-09-11T13:24:25.618Z,99801.09
2022-09-11T13:26:58.195Z,99796.63
2022-09-11T13:29:30.536Z,99785.34
2022-09-11T13:32:00.513Z,99791.16
2022-09-11T13:34:30.754Z,99797.19
2022-09-11T13:36:59.891Z,99801.44
2022-09-11T13:39:29.268Z,99779.81
2022-09-11T13:42:03.791Z,99768.22
2022-09-11T13:44:45.051Z,99765.34
2022-09-11T13:47:20.447Z,99771.56
2022-09-11T13:49:51.681Z,99756.78
2022-09-11T13:52:23.358Z,99754.31
2022-09-11T13:54:55.731Z,99758.78
2022-09-11T13:57:29.891Z,99762.06
2022-09-11T14:00:00.781Z,99769.78
2022-09-11T14:02:47.256Z,99768.00
2022-09-11T14:05:21.249Z,99763.66
2022-09-11T14:07:57.432Z,99766.41
2022-09-11T14:10:31.194Z,99758.56
2022-09-11T14:13:10.824Z,99767.50
2022-09-11T14:15:43.060Z,99757.75
2022-09-11T14:18:25.369Z,99757.97
2022-09-11T14:20:56.245Z,99762.13
2022-09-11T14:23:28.654Z,99744.44
2022-09-11T14:26:14.967Z,99752.22
2022-09-11T14:29:00.621Z,99746.56
2022-09-11T14:31:34.328Z,99743.38
2022-09-11T14:34:19.151Z,99725.84
2022-09-11T14:36:53.062Z,99755.78
2022-09-11T14:39:29.061Z,99755.69
2022-09-11T14:41:59.156Z,99745.47
2022-09-11T14:44:33.153Z,99756.84
2022-09-11T14:47:05.642Z,99757.09
2022-09-11T14:49:36.119Z,99751.13
2022-09-11T14:52:07.661Z,99756.00
2022-09-11T14:54:37.701Z,99739.88
2022-09-11T14:57:17.186Z,99745.34
2022-09-11T14:59:50.586Z,99749.72
2022-09-11T15:02:27.615Z,99747.41
2022-09-11T15:04:58.482Z,99710.56
2022-09-11T15:07:28.114Z,99729.88
2022-09-11T15:09:57.197Z,99728.16
2022-09-11T15:12:30.252Z,99732.69
2022-09-11T15:15:00.894Z,99739.22
2022-09-11T15:17:31.694Z,99731.28
2022-09-11T15:20:01.140Z,99717.38
2022-09-11T15:22:33.119Z,99722.13
2022-09-11T15:25:02.549Z,99723.25
2022-09-11T15:27:31.711Z,99723.38
2022-09-11T15:30:02.451Z,99709.78
2022-09-11T15:32:31.536Z,99675.06
2022-09-11T15:35:00.346Z,99708.53
2022-09-11T15:37:29.236Z,99711.69
2022-09-11T15:39:58.318Z,99694.66
2022-09-11T15:42:27.527Z,99709.44
2022-09-11T15:44:56.309Z,99719.59
2022-09-11T15:47:26.689Z,99721.81
2022-09-11T15:49:55.568Z,99716.66
2022-09-11T15:52:24.337Z,99723.94
2022-09-11T15:54:53.034Z,99730.22
2022-09-11T15:57:22.090Z,99735.72
2022-09-11T15:59:52.196Z,99730.69
2022-09-11T16:02:21.789Z,99738.63
2022-09-11T16:04:53.924Z,99745.06
2022-09-11T16:07:23.242Z,99742.38
2022-09-11T16:09:52.780Z,99733.94
2022-09-11T16:12:25.629Z,99742.38
2022-09-11T16:14:57.623Z,99732.97
2022-09-11T16:17:31.248Z,99724.56
2022-09-11T16:20:01.922Z,99722.88
2022-09-11T16:22:32.131Z,99730.94
2022-09-11T16:25:01.352Z,99691.75
2022-09-11T16:27:30.310Z,99731.44
2022-09-11T16:30:32.274Z,99718.09
2022-09-11T16:32:49.121Z,99728.25
2022-09-11T16:35:20.287Z,99727.81
2022-09-11T16:37:49.480Z,99730.53
2022-09-11T16:40:19.063Z,99736.19
2022-09-11T16:42:48.491Z,99723.44
2022-09-11T16:45:17.446Z,99725.19
2022-09-11T16:47:46.351Z,99645.22
2022-09-11T16:50:15.902Z,99714.13
2022-09-11T16:52:46.174Z,99730.94
2022-09-11T16:55:15.505Z,99732.59
2022-09-11T16:57:50.409Z,99723.53
2022-09-11T17:00:20.472Z,99740.00
2022-09-11T17:02:51.074Z,99729.78
2022-09-11T17:05:20.414Z,99735.97
2022-09-11T17:07:50.836Z,99733.13
2022-09-11T17:10:19.917Z,99697.66
2022-09-11T17:12:50.330Z,99728.25
2022-09-11T17:15:20.502Z,99721.88
2022-09-11T17:17:49.767Z,99726.41
2022-09-11T17:20:19.044Z,99720.19
2022-09-11T17:22:47.937Z,99723.19
2022-09-11T17:25:18.530Z,99714.13
2022-09-11T17:27:52.320Z,99720.38
2022-09-11T17:30:25.879Z,99720.75
2022-09-11T17:32:54.919Z,99718.59
2022-09-11T17:35:24.312Z,99718.75
2022-09-11T17:37:54.011Z,99708.31
2022-09-11T17:40:24.473Z,99697.84
2022-09-11T17:42:53.282Z,99715.00
2022-09-11T17:45:23.256Z,99715.03
2022-09-11T17:47:52.825Z,99705.66
2022-09-11T17:50:22.167Z,99713.94
2022-09-11T17:52:51.235Z,99705.91
2022-09-11T17:55:21.598Z,99693.47
2022-09-11T17:57:55.687Z,99709.84
2022-09-11T18:00:27.114Z,99705.56
2022-09-11T18:02:58.775Z,99694.09
2022-09-11T18:05:29.004Z,99713.97
2022-09-11T18:08:00.354Z,99718.84
2022-09-11T18:10:29.314Z,99706.91
2022-09-11T18:12:59.582Z,99701.41
2022-09-11T18:15:28.636Z,99702.78
2022-09-11T18:18:00.838Z,99703.72
2022-09-11T18:20:30.966Z,99656.75
2022-09-11T18:22:59.963Z,99680.16
2022-09-11T18:25:30.271Z,99686.88
2022-09-11T18:28:00.675Z,99688.81
2022-09-11T18:30:34.859Z,99691.41
2022-09-11T18:33:10.193Z,99673.31
2022-09-11T18:35:47.290Z,99682.66
2022-09-11T18:38:16.258Z,99687.31
2022-09-11T18:40:45.412Z,99683.53
2022-09-11T18:43:17.077Z,99670.13
2022-09-11T18:45:48.253Z,99674.66
2022-09-11T18:48:20.939Z,99675.50
2022-09-11T18:50:51.956Z,99671.22
2022-09-11T18:53:22.134Z,99666.53
2022-09-11T18:56:00.491Z,99672.94
2022-09-11T18:58:38.017Z,99663.78
2022-09-11T19:01:08.626Z,99664.09
2022-09-11T19:03:40.472Z,99671.91
2022-09-11T19:06:13.152Z,99623.84
2022-09-11T19:08:48.471Z,99646.00
2022-09-11T19:11:21.203Z,99628.63
2022-09-11T19:13:52.889Z,99664.06
2022-09-11T19:16:24.060Z,99663.16
2022-09-11T19:18:53.025Z,99648.19
2022-09-11T19:21:23.897Z,99650.66
2022-09-11T19:24:00.353Z,99645.41
2022-09-11T19:26:32.826Z,99644.94
2022-09-11T19:29:03.228Z,99653.13
2022-09-11T19:31:32.542Z,99637.84
2022-09-11T19:34:02.892Z,99663.22
2022-09-11T19:36:33.870Z,99646.59
2022-09-11T19:39:03.424Z,99655.81
2022-09-11T19:41:34.136Z,99639.41
2022-09-11T19:44:06.698Z,99630.13
2022-09-11T19:46:37.407Z,99628.69
2022-09-11T19:49:07.998Z,99662.47
2022-09-11T19:51:38.839Z,99652.22
2022-09-11T19:54:08.874Z,99608.69
2022-09-11T19:56:38.851Z,99649.31
2022-09-11T19:59:09.732Z,99636.72
2022-09-11T20:01:40.162Z,99653.19
2022-09-11T20:04:09.381Z,99624.28
2022-09-11T20:06:38.569Z,99636.16
2022-09-11T20:09:29.985Z,99624.16
2022-09-11T20:11:57.292Z,99633.09
2022-09-11T20:14:28.016Z,99629.66
2022-09-11T20:16:56.851Z,99627.91
2022-09-11T20:19:25.852Z,99620.97
2022-09-11T20:21:54.525Z,99612.78
2022-09-11T20:24:23.858Z,99616.94
2022-09-11T20:26:54.546Z,99616.81
2022-09-11T20:29:23.568Z,99623.78
2022-09-11T20:31:55.160Z,99621.81
2022-09-11T20:34:27.977Z,99613.22
2022-09-11T20:37:00.863Z,99617.56
2022-09-11T20:39:29.937Z,99609.97
2022-09-11T20:42:00.487Z,99606.47
2022-09-11T20:44:31.788Z,99604.22
2022-09-11T20:47:05.145Z,99605.09
2022-09-11T20:49:35.535Z,99602.28
2022-09-11T20:52:19.997Z,99598.75
2022-09-11T20:54:49.503Z,99586.03
2022-09-11T20:57:18.189Z,99589.47
2022-09-11T20:59:47.029Z,99528.97
2022-09-11T21:02:19.216Z,99596.94
2022-09-11T21:04:49.090Z,99603.75
2022-09-11T21:07:18.146Z,99583.00
2022-09-11T21:09:47.879Z,99590.03
2022-09-11T21:12:16.624Z,99591.22
2022-09-11T21:14:45.898Z,99580.66
2022-09-11T21:17:14.641Z,99588.28
2022-09-11T21:19:45.143Z,99585.69
2022-09-11T21:22:14.511Z,99575.78
2022-09-11T21:24:44.687Z,99583.03
2022-09-11T21:27:13.820Z,99586.50
2022-09-11T21:29:43.172Z,99576.69
2022-09-11T21:32:11.854Z,99576.50
2022-09-11T21:34:40.732Z,99567.25
2022-09-11T21:37:13.152Z,99537.34
2022-09-11T21:39:41.985Z,99569.94
2022-09-11T21:42:12.021Z,99589.03
2022-09-11T21:44:41.134Z,99589.44
2022-09-11T21:47:10.045Z,99584.56
2022-09-11T21:49:38.841Z,99574.69
2022-09-11T21:52:07.679Z,99550.19
2022-09-11T21:54:38.150Z,99530.06
2022-09-11T21:57:07.037Z,99562.28
2022-09-11T21:59:35.997Z,99566.28
2022-09-11T22:02:05.005Z,99558.41
2022-09-11T22:04:34.689Z,99547.09
2022-09-11T22:07:03.787Z,99557.59
2022-09-11T22:09:32.498Z,99552.59
2022-09-11T22:12:03.017Z,99548.88
2022-09-11T22:14:32.003Z,99545.03
2022-09-11T22:17:00.923Z,99538.66
2022-09-11T22:19:30.145Z,99458.13
2022-09-11T22:21:59.018Z,99536.63
2022-09-11T22:24:27.883Z,99533.75
2022-09-11T22:26:56.499Z,99490.47
2022-09-11T22:29:26.669Z,99536.44
2022-09-11T22:31:55.706Z,99545.84
2022-09-11T22:34:25.018Z,99542.16
2022-09-11T22:36:53.976Z,99544.81
2022-09-11T22:39:22.931Z,99535.44
2022-09-11T22:41:52.387Z,99533.97
2022-09-11T22:44:21.368Z,99533.75
2022-09-11T22:46:51.702Z,99526.34
2022-09-11T22:49:20.726Z,99528.41
2022-09-11T22:51:49.783Z,99523.19
2022-09-11T22:54:18.463Z,99514.66
2022-09-11T22:56:47.295Z,99510.28
2022-09-11T22:59:16.126Z,99521.19
2022-09-11T23:01:45.244Z,99517.50
2022-09-11T23:04:15.343Z,99504.75
2022-09-11T23:07:01.710Z,99506.59
2022-09-11T23:09:30.500Z,99504.75
2022-09-11T23:11:59.226Z,99506.28
2022-09-11T23:14:27.904Z,99512.66
2022-09-11T23:16:56.905Z,99512.63
2022-09-11T23:19:28.588Z,99505.59
2022-09-11T23:21:57.568Z,99515.00
2022-09-11T23:24:27.189Z,99516.31
2022-09-11T23:26:55.961Z,99496.00
2022-09-11T23:29:26.056Z,99509.09
2022-09-11T23:31:57.774Z,99515.94
2022-09-11T23:34:27.936Z,99505.59
2022-09-11T23:36:56.589Z,99494.50
2022-09-11T23:39:25.296Z,99511.28
2022-09-11T23:41:55.047Z,99510.59
2022-09-11T23:44:25.605Z,99501.88
2022-09-11T23:46:54.260Z,99509.25
2022-09-11T23:49:23.528Z,99501.22
2022-09-11T23:51:53.649Z,99512.63
2022-09-11T23:54:22.471Z,99515.81
2022-09-11T23:56:53.384Z,99505.94
2022-09-11T23:59:22.523Z,99445.38
